Time;durP1;ratioP1;P1;durP2;ratioP2;P2;SDS_P1;SDS_P2;PMS_P1;PMS_P2;Temp;Humidity;BMP_temperature;BMP_pressure;BME280_temperature;BME280_humidity;BME280_pressure;Samples;Min_cycle;Max_cycle;Signal;HPM_P1;HPM_P2
2022/04/20 00:00:20;;;;;;;13.13;8.63;;;;;;;;;;5008319;28;20263;-70
2022/04/20 00:02:46;;;;;;;10.97;7.97;;;;;;;;;;5007158;28;20178;-70
2022/04/20 00:05:11;;;;;;;10.43;7.40;;;;;;;;;;5002334;28;20176;-71
2022/04/20 00:07:37;;;;;;;11.33;7.83;;;;;;;;;;5008018;28;20664;-71
2022/04/20 00:10:03;;;;;;;11.43;7.63;;;;;;;;;;5006757;28;20207;-71
2022/04/20 00:12:28;;;;;;;13.03;7.67;;;;;;;;;;5007132;28;20187;-71
2022/04/20 00:14:53;;;;;;;12.47;8.50;;;;;;;;;;5000277;28;20180;-71
2022/04/20 00:17:18;;;;;;;10.40;8.00;;;;;;;;;;5009197;28;20266;-71
2022/04/20 00:19:44;;;;;;;14.47;8.00;;;;;;;;;;4998176;28;20196;-69
2022/04/20 00:22:09;;;;;;;12.40;8.27;;;;;;;;;;5008859;28;20175;-71
2022/04/20 00:24:34;;;;;;;13.17;7.93;;;;;;;;;;5011546;28;20561;-71
2022/04/20 00:26:59;;;;;;;12.20;7.90;;;;;;;;;;5010474;28;20262;-69
2022/04/20 00:29:24;;;;;;;11.70;7.93;;;;;;;;;;5004234;28;20278;-68
2022/04/20 00:31:50;;;;;;;10.60;7.70;;;;;;;;;;5003611;28;20599;-70
2022/04/20 00:34:15;;;;;;;11.87;7.87;;;;;;;;;;5011733;28;20217;-70
2022/04/20 00:36:40;;;;;;;12.97;7.93;;;;;;;;;;5009410;28;20293;-70
2022/04/20 00:39:06;;;;;;;11.70;7.93;;;;;;;;;;5013782;28;20245;-71
2022/04/20 00:41:31;;;;;;;13.70;7.67;;;;;;;;;;5012785;28;20205;-70
2022/04/20 00:43:56;;;;;;;11.63;7.73;;;;;;;;;;5008828;28;20181;-71
2022/04/20 00:46:24;;;;;;;12.83;7.83;;;;;;;;;;5009185;28;20194;-69
2022/04/20 00:48:50;;;;;;;10.80;7.77;;;;;;;;;;5013213;28;20306;-71
2022/04/20 00:51:15;;;;;;;11.47;8.27;;;;;;;;;;5013365;28;20409;-71
2022/04/20 00:53:41;;;;;;;10.57;7.97;;;;;;;;;;5013023;28;20705;-71
2022/04/20 00:56:06;;;;;;;11.30;7.73;;;;;;;;;;5010381;28;20618;-70
2022/04/20 00:58:31;;;;;;;9.37;6.93;;;;;;;;;;5016468;28;20625;-70
2022/04/20 01:00:57;;;;;;;11.47;7.50;;;;;;;;;;5012965;28;20584;-71
2022/04/20 01:03:22;;;;;;;14.33;7.17;;;;;;;;;;5009820;28;20183;-72
2022/04/20 01:05:47;;;;;;;11.17;7.40;;;;;;;;;;5013935;28;20175;-71
2022/04/20 01:08:13;;;;;;;10.60;8.23;;;;;;;;;;5013798;28;20214;-71
2022/04/20 01:10:38;;;;;;;14.47;7.77;;;;;;;;;;5014797;28;20210;-70
2022/04/20 01:13:03;;;;;;;11.50;7.17;;;;;;;;;;5011228;28;20720;-71
2022/04/20 01:15:28;;;;;;;10.73;7.33;;;;;;;;;;5019346;28;20257;-71
2022/04/20 01:17:53;;;;;;;9.53;6.60;;;;;;;;;;5012159;28;20182;-71
2022/04/20 01:20:19;;;;;;;8.40;6.97;;;;;;;;;;5012909;28;20210;-69
2022/04/20 01:22:44;;;;;;;11.67;7.47;;;;;;;;;;5013975;28;20175;-70
2022/04/20 01:25:09;;;;;;;10.27;7.53;;;;;;;;;;5013107;28;20171;-70
2022/04/20 01:27:35;;;;;;;13.47;7.30;;;;;;;;;;5006973;28;20171;-70
2022/04/20 01:30:00;;;;;;;9.90;6.90;;;;;;;;;;5013691;28;20274;-69
2022/04/20 01:32:26;;;;;;;8.83;6.73;;;;;;;;;;5011638;28;20206;-69
2022/04/20 01:34:52;;;;;;;12.47;7.40;;;;;;;;;;5013477;28;20305;-70
2022/04/20 01:37:17;;;;;;;10.70;7.13;;;;;;;;;;5012829;28;20233;-70
2022/04/20 01:39:42;;;;;;;10.17;6.70;;;;;;;;;;5012641;28;20206;-70
2022/04/20 01:42:08;;;;;;;10.30;6.73;;;;;;;;;;5011863;28;20178;-71
2022/04/20 01:44:33;;;;;;;11.10;7.40;;;;;;;;;;5007953;28;20719;-69
2022/04/20 01:46:58;;;;;;;11.73;6.33;;;;;;;;;;5008776;28;20182;-70
2022/04/20 01:49:23;;;;;;;12.53;6.87;;;;;;;;;;5010136;28;20214;-71
2022/04/20 01:51:50;;;;;;;11.65;6.63;;;;;;;;;;5012267;28;20372;-68
2022/04/20 01:54:16;;;;;;;13.00;7.73;;;;;;;;;;5009804;28;20553;-69
2022/04/20 01:56:41;;;;;;;13.93;7.27;;;;;;;;;;5013267;28;20197;-69
2022/04/20 01:59:07;;;;;;;10.70;7.03;;;;;;;;;;5004157;28;20205;-69
2022/04/20 02:04:16;;;;;;;10.33;7.23;;;;;;;;;;5007699;28;20190;-69
2022/04/20 02:06:41;;;;;;;11.67;6.10;;;;;;;;;;5008599;28;20179;-70
2022/04/20 02:09:07;;;;;;;9.67;6.23;;;;;;;;;;5010256;28;20693;-70
2022/04/20 02:11:32;;;;;;;9.10;6.57;;;;;;;;;;5012362;28;20207;-68
2022/04/20 02:13:58;;;;;;;9.27;6.63;;;;;;;;;;5008142;28;20215;-68
2022/04/20 02:16:23;;;;;;;9.63;6.17;;;;;;;;;;5005615;28;20187;-71
2022/04/20 02:18:48;;;;;;;10.10;6.50;;;;;;;;;;5010879;28;20203;-69
2022/04/20 02:21:13;;;;;;;8.43;5.80;;;;;;;;;;5012772;28;20222;-71
2022/04/20 02:23:39;;;;;;;7.23;6.27;;;;;;;;;;5009550;28;20248;-69
2022/04/20 02:26:04;;;;;;;8.30;6.00;;;;;;;;;;5011348;28;20171;-69
2022/04/20 02:28:29;;;;;;;8.57;6.23;;;;;;;;;;5010021;28;20274;-70
2022/04/20 02:30:54;;;;;;;11.43;6.63;;;;;;;;;;5013363;28;20668;-69
2022/04/20 02:33:19;;;;;;;8.20;5.67;;;;;;;;;;5011433;28;20191;-70
2022/04/20 02:35:45;;;;;;;9.77;7.27;;;;;;;;;;5012521;28;20284;-69
2022/04/20 02:38:10;;;;;;;8.20;5.67;;;;;;;;;;5011344;28;20262;-69
2022/04/20 02:40:39;;;;;;;9.27;6.03;;;;;;;;;;5011139;28;20206;-69
2022/04/20 02:43:05;;;;;;;8.70;5.17;;;;;;;;;;5007782;28;20171;-70
2022/04/20 02:45:30;;;;;;;9.00;6.90;;;;;;;;;;5002940;28;20194;-72
2022/04/20 02:47:55;;;;;;;10.67;6.70;;;;;;;;;;5012075;28;20179;-69
2022/04/20 02:50:20;;;;;;;9.63;6.33;;;;;;;;;;5011976;28;20329;-69
2022/04/20 02:52:46;;;;;;;9.40;6.87;;;;;;;;;;5010381;28;20657;-69
2022/04/20 02:55:11;;;;;;;7.97;6.43;;;;;;;;;;5011042;28;20250;-70
2022/04/20 02:57:36;;;;;;;8.83;6.33;;;;;;;;;;5009306;28;20301;-70
2022/04/20 03:00:02;;;;;;;10.53;6.47;;;;;;;;;;5012554;28;20595;-70
2022/04/20 03:02:27;;;;;;;8.70;6.67;;;;;;;;;;5008632;28;20210;-68
2022/04/20 03:04:52;;;;;;;9.47;6.33;;;;;;;;;;5007151;28;20182;-69
2022/04/20 03:07:18;;;;;;;9.33;6.50;;;;;;;;;;5015441;28;20167;-69
2022/04/20 03:09:43;;;;;;;8.07;5.60;;;;;;;;;;5010989;28;20281;-70
2022/04/20 03:12:08;;;;;;;8.30;6.40;;;;;;;;;;5007536;28;20176;-70
2022/04/20 03:14:33;;;;;;;8.43;6.30;;;;;;;;;;5012799;28;20183;-70
2022/04/20 03:16:59;;;;;;;8.37;6.57;;;;;;;;;;5013115;28;20698;-70
2022/04/20 03:19:24;;;;;;;9.47;6.00;;;;;;;;;;5011757;28;20676;-69
2022/04/20 03:21:49;;;;;;;8.30;6.40;;;;;;;;;;5010256;28;20528;-70
2022/04/20 03:24:14;;;;;;;8.77;6.23;;;;;;;;;;5010717;28;20305;-70
2022/04/20 03:26:39;;;;;;;7.30;5.70;;;;;;;;;;5011409;28;20175;-70
2022/04/20 03:29:05;;;;;;;11.53;6.30;;;;;;;;;;5011613;28;20233;-70
2022/04/20 03:31:31;;;;;;;10.60;6.90;;;;;;;;;;5010436;28;20199;-70
2022/04/20 03:33:56;;;;;;;8.63;6.13;;;;;;;;;;5008163;28;20182;-70
2022/04/20 03:36:21;;;;;;;7.87;6.43;;;;;;;;;;5011865;28;20278;-70
2022/04/20 03:38:47;;;;;;;7.50;5.93;;;;;;;;;;5009120;28;20203;-70
2022/04/20 03:41:12;;;;;;;8.10;5.73;;;;;;;;;;5010885;28;20734;-71
2022/04/20 03:43:37;;;;;;;13.17;5.83;;;;;;;;;;5005469;28;20214;-71
2022/04/20 03:46:02;;;;;;;9.63;6.40;;;;;;;;;;5001024;28;20560;-70
2022/04/20 03:48:28;;;;;;;9.37;5.53;;;;;;;;;;5008078;28;20211;-71
2022/04/20 03:50:53;;;;;;;8.60;5.87;;;;;;;;;;5006418;28;20198;-68
2022/04/20 03:53:18;;;;;;;6.73;5.57;;;;;;;;;;5010958;28;20183;-68
2022/04/20 03:55:44;;;;;;;8.40;6.13;;;;;;;;;;5010968;28;20179;-71
2022/04/20 03:58:09;;;;;;;8.53;5.67;;;;;;;;;;5011540;28;20717;-69
2022/04/20 04:00:34;;;;;;;6.90;6.20;;;;;;;;;;5010134;28;20203;-70
2022/04/20 04:02:59;;;;;;;6.53;5.33;;;;;;;;;;5011077;28;20555;-71
2022/04/20 04:05:24;;;;;;;7.63;5.80;;;;;;;;;;5009992;28;20630;-70
2022/04/20 04:07:50;;;;;;;8.67;5.63;;;;;;;;;;4997067;28;20214;-70
2022/04/20 04:10:15;;;;;;;8.17;5.90;;;;;;;;;;5009485;28;20198;-69
2022/04/20 04:12:40;;;;;;;6.93;5.53;;;;;;;;;;5009945;28;20222;-70
2022/04/20 04:15:06;;;;;;;8.20;5.73;;;;;;;;;;5010642;28;20190;-70
2022/04/20 04:17:31;;;;;;;8.70;6.30;;;;;;;;;;5008179;28;20240;-69
2022/04/20 04:19:57;;;;;;;7.30;5.60;;;;;;;;;;5010993;28;20206;-70
2022/04/20 04:22:22;;;;;;;8.33;5.57;;;;;;;;;;5008807;28;20179;-70
2022/04/20 04:24:47;;;;;;;7.40;4.90;;;;;;;;;;5011668;28;20656;-70
2022/04/20 04:27:13;;;;;;;6.40;4.93;;;;;;;;;;5009512;28;20172;-70
2022/04/20 04:29:39;;;;;;;10.63;5.53;;;;;;;;;;5009016;28;20645;-70
2022/04/20 04:32:04;;;;;;;6.73;4.80;;;;;;;;;;5010357;28;20182;-70
2022/04/20 04:34:30;;;;;;;9.00;5.50;;;;;;;;;;5007220;28;20724;-68
2022/04/20 04:36:55;;;;;;;6.93;5.17;;;;;;;;;;5010312;28;20183;-71
2022/04/20 04:39:23;;;;;;;8.43;5.63;;;;;;;;;;5009705;28;20213;-70
2022/04/20 04:41:49;;;;;;;7.50;5.03;;;;;;;;;;5009713;28;20191;-69
2022/04/20 04:44:15;;;;;;;9.23;5.13;;;;;;;;;;5007139;28;20175;-69
2022/04/20 04:49:24;;;;;;;6.13;4.80;;;;;;;;;;5009076;28;20278;-69
2022/04/20 04:51:49;;;;;;;6.53;5.00;;;;;;;;;;5010306;28;20281;-71
2022/04/20 04:54:15;;;;;;;7.13;5.37;;;;;;;;;;5010107;28;20205;-69
2022/04/20 04:56:40;;;;;;;6.90;4.70;;;;;;;;;;5005732;28;20242;-70
2022/04/20 04:59:05;;;;;;;5.50;4.83;;;;;;;;;;5009293;28;20194;-69
2022/04/20 05:01:30;;;;;;;7.03;5.00;;;;;;;;;;4997997;28;20851;-69
2022/04/20 05:03:56;;;;;;;5.73;4.73;;;;;;;;;;5004360;28;20251;-70
2022/04/20 05:06:21;;;;;;;8.30;5.47;;;;;;;;;;5005529;28;20191;-69
2022/04/20 05:08:46;;;;;;;5.23;4.40;;;;;;;;;;5010075;28;20193;-70
2022/04/20 05:11:12;;;;;;;8.50;5.70;;;;;;;;;;5010322;28;20199;-69
2022/04/20 05:13:37;;;;;;;5.50;4.90;;;;;;;;;;5007847;28;20653;-70
2022/04/20 05:16:02;;;;;;;9.07;4.43;;;;;;;;;;5010058;28;20179;-70
2022/04/20 05:18:27;;;;;;;8.23;4.53;;;;;;;;;;5007121;28;20252;-71
2022/04/20 05:20:52;;;;;;;7.03;5.20;;;;;;;;;;5013740;28;20219;-70
2022/04/20 05:23:18;;;;;;;5.70;4.90;;;;;;;;;;5013314;28;20185;-69
2022/04/20 05:25:43;;;;;;;5.70;4.37;;;;;;;;;;5013743;28;20242;-69
2022/04/20 05:28:08;;;;;;;4.90;4.17;;;;;;;;;;5005809;28;20178;-70
2022/04/20 05:30:33;;;;;;;5.33;4.30;;;;;;;;;;5010822;28;20736;-69
2022/04/20 05:32:58;;;;;;;5.03;4.07;;;;;;;;;;5003084;28;20171;-69
2022/04/20 05:35:24;;;;;;;8.33;4.33;;;;;;;;;;5006180;28;20761;-69
2022/04/20 05:43:16;;;;;;;5.40;4.47;;;;;;;;;;5006076;28;20595;-68
2022/04/20 05:45:42;;;;;;;5.90;4.23;;;;;;;;;;5003733;28;20182;-69
2022/04/20 05:48:08;;;;;;;5.77;4.40;;;;;;;;;;4999793;28;20266;-70
2022/04/20 05:50:33;;;;;;;5.37;4.10;;;;;;;;;;5010825;28;20217;-70
2022/04/20 05:52:58;;;;;;;7.53;3.63;;;;;;;;;;5010227;28;20776;-69
2022/04/20 05:55:23;;;;;;;5.40;4.30;;;;;;;;;;5005552;28;20194;-70
2022/04/20 05:57:48;;;;;;;6.57;4.07;;;;;;;;;;5008463;28;20210;-71
2022/04/20 06:00:17;;;;;;;4.90;3.83;;;;;;;;;;5011192;28;20301;-70
2022/04/20 06:02:42;;;;;;;5.40;3.40;;;;;;;;;;5004553;28;20202;-70
2022/04/20 06:05:08;;;;;;;5.10;3.90;;;;;;;;;;5007154;28;20167;-69
2022/04/20 06:07:33;;;;;;;8.83;4.03;;;;;;;;;;5006045;28;20182;-70
2022/04/20 06:09:58;;;;;;;6.97;3.47;;;;;;;;;;5002078;28;20195;-69
2022/04/20 06:12:23;;;;;;;5.13;3.80;;;;;;;;;;5011581;28;20273;-70
2022/04/20 06:14:49;;;;;;;5.80;3.80;;;;;;;;;;5007681;28;20186;-69
2022/04/20 06:17:14;;;;;;;5.20;3.40;;;;;;;;;;5011223;28;20265;-69
2022/04/20 06:19:39;;;;;;;6.43;3.73;;;;;;;;;;5011134;28;20703;-71
2022/04/20 06:22:04;;;;;;;4.73;3.63;;;;;;;;;;5010920;28;20247;-71
2022/04/20 06:24:30;;;;;;;4.43;4.03;;;;;;;;;;5010558;28;20233;-71
2022/04/20 06:26:55;;;;;;;5.80;3.37;;;;;;;;;;5011760;28;20190;-70
2022/04/20 06:29:20;;;;;;;4.23;3.70;;;;;;;;;;5008933;28;20667;-70
2022/04/20 06:31:45;;;;;;;5.07;3.47;;;;;;;;;;5013225;28;20191;-69
2022/04/20 06:34:11;;;;;;;5.87;3.40;;;;;;;;;;5003954;28;20253;-71
2022/04/20 06:36:36;;;;;;;7.00;3.60;;;;;;;;;;5012787;28;20266;-70
2022/04/20 06:39:01;;;;;;;4.70;3.27;;;;;;;;;;5012663;28;20203;-70
2022/04/20 06:41:27;;;;;;;5.63;3.30;;;;;;;;;;5005641;28;20678;-70
2022/04/20 06:43:52;;;;;;;4.77;3.80;;;;;;;;;;5005162;28;20202;-70
2022/04/20 06:46:17;;;;;;;7.53;4.17;;;;;;;;;;5012457;28;20254;-71
2022/04/20 06:48:42;;;;;;;4.20;3.27;;;;;;;;;;5010853;28;20184;-71
2022/04/20 06:51:07;;;;;;;6.37;3.33;;;;;;;;;;5002670;28;20649;-70
2022/04/20 06:59:00;;;;;;;3.70;3.00;;;;;;;;;;5011677;28;20198;-69
2022/04/20 07:01:25;;;;;;;5.63;3.37;;;;;;;;;;5012175;28;20215;-70
2022/04/20 07:03:50;;;;;;;3.97;3.53;;;;;;;;;;5008713;28;20198;-72
2022/04/20 07:06:16;;;;;;;5.07;3.17;;;;;;;;;;5012445;28;20210;-70
2022/04/20 07:08:41;;;;;;;4.35;3.63;;;;;;;;;;5005353;28;20193;-69
2022/04/20 07:11:06;;;;;;;5.00;3.40;;;;;;;;;;5004843;28;20206;-70
2022/04/20 07:13:32;;;;;;;4.50;3.70;;;;;;;;;;5010139;28;20266;-71
2022/04/20 07:15:57;;;;;;;6.35;3.00;;;;;;;;;;5011741;28;20190;-69
2022/04/20 07:18:23;;;;;;;3.63;3.22;;;;;;;;;;5004577;28;20191;-69
2022/04/20 07:20:49;;;;;;;6.35;3.88;;;;;;;;;;5005248;28;20206;-69
2022/04/20 07:23:14;;;;;;;7.68;2.97;;;;;;;;;;4997786;28;20191;-70
2022/04/20 07:25:39;;;;;;;5.07;2.90;;;;;;;;;;5006589;28;20178;-71
2022/04/20 07:28:05;;;;;;;5.72;4.20;;;;;;;;;;5003914;28;20313;-71
2022/04/20 07:30:31;;;;;;;4.93;3.30;;;;;;;;;;5009208;28;20203;-71
2022/04/20 07:32:56;;;;;;;7.65;3.20;;;;;;;;;;5003527;28;20640;-70
2022/04/20 07:35:22;;;;;;;3.45;3.08;;;;;;;;;;5004821;28;20191;-71
2022/04/20 07:37:47;;;;;;;5.40;3.58;;;;;;;;;;5005157;28;20182;-71
2022/04/20 07:40:12;;;;;;;4.72;3.90;;;;;;;;;;5008634;28;20207;-70
2022/04/20 07:42:38;;;;;;;5.35;3.33;;;;;;;;;;5008766;28;20588;-70
2022/04/20 07:45:03;;;;;;;4.07;3.20;;;;;;;;;;5009334;28;20684;-69
2022/04/20 07:47:29;;;;;;;6.53;3.10;;;;;;;;;;5007073;28;20175;-72
2022/04/20 07:52:43;;;;;;;3.28;2.97;;;;;;;;;;5013332;28;20194;-72
2022/04/20 07:55:12;;;;;;;3.67;3.15;;;;;;;;;;5008349;28;20187;-71
2022/04/20 07:57:37;;;;;;;5.93;2.90;;;;;;;;;;4999517;28;20188;-69
2022/04/20 08:00:06;;;;;;;7.93;3.90;;;;;;;;;;5005447;28;20214;-71
2022/04/20 08:02:31;;;;;;;5.35;3.00;;;;;;;;;;5011327;28;20305;-71
2022/04/20 08:04:56;;;;;;;5.05;2.90;;;;;;;;;;5010793;28;20171;-71
2022/04/20 08:07:22;;;;;;;4.75;2.95;;;;;;;;;;5011359;28;20594;-69
2022/04/20 08:09:47;;;;;;;4.38;3.30;;;;;;;;;;5004580;28;20659;-69
2022/04/20 08:12:12;;;;;;;5.60;2.90;;;;;;;;;;4994852;28;20189;-69
2022/04/20 08:14:37;;;;;;;4.28;3.13;;;;;;;;;;5017696;28;20480;-71
2022/04/20 08:17:03;;;;;;;4.85;3.85;;;;;;;;;;5010322;28;20918;-71
2022/04/20 08:19:28;;;;;;;4.28;3.47;;;;;;;;;;5009895;28;20486;-69
2022/04/20 08:21:53;;;;;;;3.60;2.45;;;;;;;;;;5009159;28;20238;-69
2022/04/20 08:24:19;;;;;;;5.20;3.10;;;;;;;;;;5007552;28;20178;-69
2022/04/20 08:26:44;;;;;;;4.05;2.33;;;;;;;;;;5005195;28;20207;-71
2022/04/20 08:29:10;;;;;;;5.55;2.72;;;;;;;;;;5005026;28;20179;-69
2022/04/20 08:31:36;;;;;;;3.22;2.75;;;;;;;;;;5010134;28;20271;-69
2022/04/20 08:34:01;;;;;;;3.63;2.67;;;;;;;;;;5008540;28;20183;-71
2022/04/20 08:36:27;;;;;;;2.80;2.50;;;;;;;;;;5009122;28;20241;-69
2022/04/20 08:38:55;;;;;;;3.37;2.50;;;;;;;;;;5009379;28;20456;-71
2022/04/20 08:41:20;;;;;;;5.25;2.88;;;;;;;;;;5008511;28;20528;-70
2022/04/20 08:43:45;;;;;;;4.85;2.50;;;;;;;;;;5007967;28;20175;-70
2022/04/20 08:46:10;;;;;;;3.25;2.35;;;;;;;;;;5009112;28;20186;-71
2022/04/20 08:48:36;;;;;;;2.17;1.95;;;;;;;;;;5009432;28;20656;-69
2022/04/20 08:51:03;;;;;;;2.95;1.98;;;;;;;;;;5008016;28;20218;-69
2022/04/20 08:53:29;;;;;;;2.22;1.80;;;;;;;;;;5018937;28;20174;-69
2022/04/20 08:57:15;;;;;;;2.53;2.00;;;;;;;;;;5011565;28;20190;-69
2022/04/20 08:58:40;;;;;;;2.88;2.40;;;;;;;;;;5002030;28;20577;-69
2022/04/20 09:01:06;;;;;;;3.42;2.40;;;;;;;;;;5013001;28;20214;-70
2022/04/20 09:03:33;;;;;;;4.30;2.15;;;;;;;;;;5012645;28;20807;-69
2022/04/20 09:05:59;;;;;;;2.60;2.00;;;;;;;;;;5009348;28;20171;-69
2022/04/20 09:08:25;;;;;;;2.60;2.05;;;;;;;;;;5013696;28;20656;-69
2022/04/20 09:10:51;;;;;;;2.67;2.20;;;;;;;;;;5011430;28;20190;-69
2022/04/20 09:13:16;;;;;;;2.20;2.00;;;;;;;;;;5005694;28;20678;-69
2022/04/20 09:15:41;;;;;;;2.97;2.30;;;;;;;;;;5010401;28;20190;-70
2022/04/20 09:18:07;;;;;;;2.20;1.75;;;;;;;;;;5010968;28;20438;-70
2022/04/20 09:20:34;;;;;;;3.33;1.70;;;;;;;;;;5013063;28;20302;-70
2022/04/20 09:23:00;;;;;;;4.65;2.00;;;;;;;;;;5007725;28;20262;-70
2022/04/20 09:25:45;;;;;;;4.03;2.33;;;;;;;;;;5013561;28;20541;-70
2022/04/20 09:28:10;;;;;;;4.30;2.42;;;;;;;;;;5009961;28;20191;-69
2022/04/20 09:30:38;;;;;;;6.43;2.50;;;;;;;;;;5012270;28;20361;-70
2022/04/20 09:33:06;;;;;;;6.95;2.47;;;;;;;;;;5007072;28;20516;-70
2022/04/20 09:35:39;;;;;;;3.88;1.80;;;;;;;;;;5014013;28;20216;-70
2022/04/20 09:38:05;;;;;;;2.83;2.10;;;;;;;;;;5011755;28;20190;-70
2022/04/20 09:40:33;;;;;;;2.90;1.92;;;;;;;;;;5013135;28;20211;-70
2022/04/20 09:43:02;;;;;;;3.05;2.13;;;;;;;;;;5009715;28;20199;-70
2022/04/20 09:45:28;;;;;;;3.15;2.10;;;;;;;;;;5011218;28;20254;-70
2022/04/20 09:50:37;;;;;;;3.65;2.03;;;;;;;;;;5007441;28;20247;-70
2022/04/20 09:53:05;;;;;;;3.40;1.90;;;;;;;;;;5011793;28;20195;-70
2022/04/20 09:55:32;;;;;;;2.72;2.10;;;;;;;;;;5012185;28;20580;-70
2022/04/20 09:58:12;;;;;;;2.83;2.17;;;;;;;;;;5010653;28;20207;-69
2022/04/20 10:00:38;;;;;;;4.03;2.50;;;;;;;;;;5010829;28;20783;-70
2022/04/20 10:03:03;;;;;;;4.00;2.55;;;;;;;;;;5008768;28;20171;-70
2022/04/20 10:05:29;;;;;;;2.78;2.20;;;;;;;;;;5011978;28;20233;-70
2022/04/20 10:07:58;;;;;;;5.13;3.20;;;;;;;;;;5005032;28;20183;-69
2022/04/20 10:10:23;;;;;;;3.60;2.50;;;;;;;;;;5013765;28;20281;-70
2022/04/20 10:12:51;;;;;;;3.38;2.42;;;;;;;;;;5009654;28;20314;-69
2022/04/20 10:18:01;;;;;;;4.53;2.22;;;;;;;;;;4993281;28;20294;-69
2022/04/20 10:20:26;;;;;;;3.50;2.20;;;;;;;;;;5005694;28;20293;-69
2022/04/20 10:22:52;;;;;;;3.05;2.35;;;;;;;;;;5011380;28;20179;-69
2022/04/20 10:25:18;;;;;;;4.05;1.80;;;;;;;;;;5009139;28;20179;-69
2022/04/20 10:27:58;;;;;;;1.60;1.50;;;;;;;;;;5005601;28;20178;-67
2022/04/20 10:30:26;;;;;;;2.15;1.60;;;;;;;;;;5011150;28;20574;-69
2022/04/20 10:32:53;;;;;;;3.78;1.90;;;;;;;;;;5006210;28;20531;-69
2022/04/20 10:35:18;;;;;;;2.83;2.35;;;;;;;;;;5011654;28;20560;-73
2022/04/20 10:38:02;;;;;;;3.10;1.95;;;;;;;;;;5011167;28;20209;-69
2022/04/20 10:40:28;;;;;;;4.35;1.80;;;;;;;;;;5008853;28;21798;-68
2022/04/20 10:43:12;;;;;;;2.42;1.90;;;;;;;;;;5007250;28;20716;-68
2022/04/20 10:45:37;;;;;;;2.17;1.80;;;;;;;;;;5010839;28;20179;-69
2022/04/20 10:48:03;;;;;;;8.30;2.83;;;;;;;;;;5010507;28;20175;-69
2022/04/20 10:50:29;;;;;;;1.67;1.50;;;;;;;;;;5009714;28;20464;-68
2022/04/20 10:53:03;;;;;;;2.15;1.70;;;;;;;;;;5005184;28;20183;-69
2022/04/20 10:55:31;;;;;;;3.75;2.05;;;;;;;;;;5008826;28;20281;-68
2022/04/20 10:57:56;;;;;;;4.20;2.00;;;;;;;;;;5008325;28;20183;-68
2022/04/20 11:00:22;;;;;;;2.47;1.90;;;;;;;;;;5009418;28;20628;-68
2022/04/20 11:02:51;;;;;;;3.42;1.80;;;;;;;;;;5009571;28;20182;-68
2022/04/20 11:05:19;;;;;;;3.35;1.50;;;;;;;;;;5004273;28;20716;-68
2022/04/20 11:08:04;;;;;;;2.45;1.45;;;;;;;;;;5010469;28;20179;-69
2022/04/20 11:10:29;;;;;;;2.35;1.50;;;;;;;;;;5009352;28;20203;-67
2022/04/20 11:19:00;;;;;;;2.85;1.90;;;;;;;;;;5007922;28;20197;-68
2022/04/20 11:21:25;;;;;;;2.47;1.83;;;;;;;;;;5000433;28;20282;-68
2022/04/20 11:23:51;;;;;;;1.50;1.40;;;;;;;;;;5012926;28;20353;-69
2022/04/20 11:26:30;;;;;;;4.00;1.77;;;;;;;;;;5011825;28;20789;-68
2022/04/20 11:28:56;;;;;;;2.28;1.80;;;;;;;;;;5010838;28;20179;-68
2022/04/20 11:31:22;;;;;;;1.90;1.65;;;;;;;;;;5011470;28;20289;-68
2022/04/20 11:33:47;;;;;;;2.92;1.70;;;;;;;;;;5009484;28;20313;-68
2022/04/20 11:36:13;;;;;;;3.15;1.73;;;;;;;;;;5007696;28;20683;-68
2022/04/20 11:38:40;;;;;;;5.22;2.00;;;;;;;;;;5005435;28;20874;-68
2022/04/20 11:41:05;;;;;;;4.32;2.10;;;;;;;;;;5009880;28;21205;-68
2022/04/20 11:43:31;;;;;;;3.17;2.03;;;;;;;;;;5005982;28;20271;-68
2022/04/20 11:45:56;;;;;;;3.25;1.92;;;;;;;;;;5006607;28;20178;-68
2022/04/20 11:48:21;;;;;;;3.90;1.85;;;;;;;;;;5007732;28;20178;-68
2022/04/20 11:50:56;;;;;;;4.53;1.60;;;;;;;;;;5004517;28;20206;-67
2022/04/20 11:53:30;;;;;;;2.85;2.00;;;;;;;;;;5009235;28;20428;-68
2022/04/20 11:55:55;;;;;;;4.20;1.90;;;;;;;;;;5006979;28;20363;-67
2022/04/20 11:58:21;;;;;;;2.97;1.80;;;;;;;;;;5007764;28;20678;-68
2022/04/20 12:00:46;;;;;;;1.97;1.77;;;;;;;;;;5006792;28;20464;-68
2022/04/20 12:03:11;;;;;;;2.50;1.80;;;;;;;;;;5002605;28;20787;-68
2022/04/20 12:05:36;;;;;;;2.38;1.88;;;;;;;;;;5005299;28;20432;-69
2022/04/20 12:08:01;;;;;;;2.53;2.00;;;;;;;;;;5008471;28;20168;-68
2022/04/20 12:10:26;;;;;;;2.63;1.80;;;;;;;;;;5008636;28;20238;-68
2022/04/20 12:12:53;;;;;;;2.37;1.60;;;;;;;;;;5004964;28;20478;-69
2022/04/20 12:15:20;;;;;;;2.83;1.80;;;;;;;;;;5007528;28;20477;-69
2022/04/20 12:17:46;;;;;;;2.13;1.52;;;;;;;;;;5006018;28;20536;-67
2022/04/20 12:20:11;;;;;;;2.50;1.83;;;;;;;;;;5004575;28;20210;-68
2022/04/20 12:22:36;;;;;;;4.15;2.30;;;;;;;;;;5009624;28;20653;-68
2022/04/20 12:25:05;;;;;;;2.00;1.70;;;;;;;;;;5012525;28;20175;-69
2022/04/20 12:27:30;;;;;;;4.68;1.70;;;;;;;;;;5011087;28;20409;-67
2022/04/20 12:30:00;;;;;;;3.07;1.50;;;;;;;;;;5013465;28;20209;-69
2022/04/20 12:32:26;;;;;;;3.85;2.00;;;;;;;;;;5011940;28;20479;-68
2022/04/20 12:34:54;;;;;;;2.33;1.80;;;;;;;;;;5012336;28;20206;-67
2022/04/20 12:37:28;;;;;;;3.97;1.92;;;;;;;;;;5004098;28;20641;-68
2022/04/20 12:39:54;;;;;;;1.83;1.60;;;;;;;;;;5011016;28;20214;-67
2022/04/20 12:42:19;;;;;;;2.42;1.50;;;;;;;;;;5009728;28;20660;-67
2022/04/20 12:44:51;;;;;;;3.70;1.80;;;;;;;;;;5010463;28;20210;-67
2022/04/20 12:47:16;;;;;;;2.13;1.60;;;;;;;;;;5008878;28;20171;-68
2022/04/20 12:49:41;;;;;;;3.28;1.50;;;;;;;;;;5008466;28;20629;-67
2022/04/20 12:52:13;;;;;;;2.13;1.52;;;;;;;;;;5018725;28;20210;-67
2022/04/20 12:54:39;;;;;;;3.40;1.60;;;;;;;;;;5009773;28;20175;-68
2022/04/20 13:03:02;;;;;;;3.47;1.60;;;;;;;;;;5009057;28;20603;-67
2022/04/20 13:05:29;;;;;;;1.48;1.35;;;;;;;;;;5012610;28;20229;-68
2022/04/20 13:07:54;;;;;;;3.67;1.88;;;;;;;;;;5005500;28;20196;-68
2022/04/20 13:10:20;;;;;;;3.63;1.77;;;;;;;;;;5010935;28;20246;-68
2022/04/20 13:12:48;;;;;;;1.60;1.25;;;;;;;;;;5014313;28;20175;-68
2022/04/20 13:15:14;;;;;;;3.28;1.95;;;;;;;;;;5010336;28;20586;-68
2022/04/20 13:17:39;;;;;;;3.33;1.50;;;;;;;;;;5010948;28;20197;-68
2022/04/20 13:20:04;;;;;;;3.58;1.45;;;;;;;;;;5009269;28;20464;-68
2022/04/20 13:22:29;;;;;;;2.83;1.60;;;;;;;;;;4994778;28;20182;-68
2022/04/20 13:27:57;;;;;;;3.28;1.80;;;;;;;;;;5009544;28;20186;-69
2022/04/20 13:30:24;;;;;;;1.77;1.58;;;;;;;;;;5009433;28;20637;-68
2022/04/20 13:32:49;;;;;;;4.20;1.48;;;;;;;;;;5014438;28;20285;-68
2022/04/20 13:35:14;;;;;;;3.28;1.90;;;;;;;;;;5013373;28;20696;-68
2022/04/20 13:37:40;;;;;;;4.03;1.30;;;;;;;;;;5010422;28;20205;-68
2022/04/20 13:40:05;;;;;;;1.67;1.27;;;;;;;;;;5008313;28;20463;-68
2022/04/20 13:42:31;;;;;;;2.60;1.50;;;;;;;;;;5009451;28;20460;-68
2022/04/20 13:44:56;;;;;;;3.33;1.20;;;;;;;;;;5008524;28;20186;-68
2022/04/20 13:47:22;;;;;;;3.50;2.00;;;;;;;;;;5006544;28;20179;-69
2022/04/20 13:49:48;;;;;;;2.70;1.55;;;;;;;;;;5009516;28;20699;-68
2022/04/20 13:52:13;;;;;;;2.05;1.85;;;;;;;;;;5011765;28;20179;-68
2022/04/20 13:54:39;;;;;;;2.83;1.95;;;;;;;;;;5010491;28;20229;-68
2022/04/20 13:57:04;;;;;;;5.13;2.07;;;;;;;;;;5012352;28;20664;-67
2022/04/20 13:59:29;;;;;;;4.55;1.25;;;;;;;;;;5008815;28;20472;-68
2022/04/20 14:01:54;;;;;;;2.13;1.67;;;;;;;;;;5012020;28;20294;-67
2022/04/20 14:04:19;;;;;;;2.07;1.70;;;;;;;;;;5008196;28;20180;-69
2022/04/20 14:06:45;;;;;;;4.23;1.73;;;;;;;;;;5012299;28;20485;-69
2022/04/20 14:09:10;;;;;;;2.47;1.88;;;;;;;;;;5009153;28;20482;-67
2022/04/20 14:11:35;;;;;;;1.95;1.50;;;;;;;;;;5013453;28;20244;-68
2022/04/20 14:14:01;;;;;;;2.53;1.70;;;;;;;;;;5011453;28;20310;-68
2022/04/20 14:16:27;;;;;;;3.13;1.50;;;;;;;;;;5012897;28;20217;-68
2022/04/20 14:18:52;;;;;;;3.00;1.92;;;;;;;;;;5008920;28;20219;-68
2022/04/20 14:21:18;;;;;;;3.73;1.60;;;;;;;;;;5011156;28;20579;-68
2022/04/20 14:23:43;;;;;;;2.20;1.77;;;;;;;;;;5009864;28;20424;-69
2022/04/20 14:32:20;;;;;;;2.70;1.80;;;;;;;;;;5012419;28;20245;-69
2022/04/20 14:34:24;;;;;;;4.05;1.98;;;;;;;;;;5000816;28;20191;-69
2022/04/20 14:36:49;;;;;;;4.40;2.10;;;;;;;;;;5009842;28;20209;-68
2022/04/20 14:39:15;;;;;;;4.03;2.00;;;;;;;;;;5009429;28;20203;-67
2022/04/20 14:41:40;;;;;;;2.30;2.00;;;;;;;;;;5009460;28;20471;-68
2022/04/20 14:44:05;;;;;;;1.83;1.63;;;;;;;;;;5006438;28;20408;-68
2022/04/20 14:46:30;;;;;;;4.50;1.90;;;;;;;;;;5009306;28;20544;-68
2022/04/20 14:48:56;;;;;;;5.80;2.13;;;;;;;;;;5011657;28;20416;-69
2022/04/20 14:51:22;;;;;;;6.53;2.65;;;;;;;;;;5007469;28;20203;-68
2022/04/20 14:53:49;;;;;;;2.28;1.90;;;;;;;;;;5015367;28;20227;-68
2022/04/20 14:56:14;;;;;;;3.28;1.92;;;;;;;;;;5010706;28;20167;-67
2022/04/20 14:58:39;;;;;;;4.35;2.10;;;;;;;;;;5009200;28;20629;-68
2022/04/20 15:01:04;;;;;;;4.97;1.70;;;;;;;;;;5010909;28;20217;-68
2022/04/20 15:03:29;;;;;;;4.15;2.45;;;;;;;;;;5002468;28;20432;-68
2022/04/20 15:05:55;;;;;;;4.40;1.80;;;;;;;;;;5008956;28;20183;-68
2022/04/20 15:08:20;;;;;;;7.00;1.80;;;;;;;;;;5008072;28;21014;-67
2022/04/20 15:10:45;;;;;;;2.33;2.10;;;;;;;;;;5010407;28;20444;-68
2022/04/20 15:13:11;;;;;;;5.93;1.90;;;;;;;;;;5011875;28;20175;-67
2022/04/20 15:15:36;;;;;;;3.13;2.10;;;;;;;;;;5010377;28;20934;-68
2022/04/20 15:18:02;;;;;;;3.67;1.80;;;;;;;;;;5007569;28;20814;-67